createdAt,value
2022-11-08T03:59:10.515Z,20.74
2022-11-08T04:00:09.982Z,20.75
2022-11-08T04:01:10.131Z,20.66
2022-11-08T04:02:10.114Z,20.75
2022-11-08T04:03:10.059Z,20.67
2022-11-08T04:04:10.028Z,20.74
2022-11-08T04:05:09.979Z,20.75
2022-11-08T04:06:10.019Z,20.68
2022-11-08T04:07:10.032Z,20.71
2022-11-08T04:08:10.089Z,20.68
2022-11-08T04:09:10.011Z,20.75
2022-11-08T04:10:10.154Z,20.81
2022-11-08T04:11:09.984Z,20.76
2022-11-08T04:12:10.003Z,20.78
2022-11-08T04:13:10.001Z,20.85
2022-11-08T04:14:10.040Z,20.82
2022-11-08T04:15:09.342Z,20.81
2022-11-08T04:16:13.916Z,20.81
2022-11-08T04:17:09.995Z,20.90
2022-11-08T04:18:09.989Z,20.94
2022-11-08T04:19:09.594Z,20.91
2022-11-08T04:20:09.996Z,20.96
2022-11-08T04:21:10.002Z,20.85
2022-11-08T04:22:10.020Z,20.85
2022-11-08T04:23:09.990Z,21.01
2022-11-08T04:24:10.022Z,21.00
2022-11-08T04:25:10.034Z,20.94
2022-11-08T04:26:08.304Z,21.00
2022-11-08T04:27:08.320Z,20.96
2022-11-08T04:28:08.318Z,21.03
2022-11-08T04:29:10.038Z,21.00
2022-11-08T04:30:08.285Z,21.03
2022-11-08T04:31:09.285Z,21.03
2022-11-08T04:32:08.314Z,21.09
2022-11-08T04:33:09.511Z,21.09
2022-11-08T04:34:08.269Z,21.01
2022-11-08T04:35:08.296Z,21.08
2022-11-08T04:36:09.339Z,21.08
2022-11-08T04:37:08.285Z,21.03
2022-11-08T04:38:10.517Z,21.09
2022-11-08T04:39:08.268Z,21.15
2022-11-08T04:40:10.026Z,21.12
2022-11-08T04:41:09.238Z,21.08
2022-11-08T04:42:10.044Z,21.09
2022-11-08T04:43:09.224Z,21.16
2022-11-08T04:44:10.044Z,21.18
2022-11-08T04:45:10.034Z,21.21
2022-11-08T04:46:10.034Z,21.18
2022-11-08T04:47:10.030Z,21.22
2022-11-08T04:48:10.106Z,21.21
2022-11-08T04:49:10.059Z,21.16
2022-11-08T04:50:10.093Z,21.30
2022-11-08T04:51:10.195Z,21.15
2022-11-08T04:52:08.192Z,21.19
2022-11-08T04:53:08.203Z,21.21
2022-11-08T04:54:10.075Z,21.28
2022-11-08T04:55:10.533Z,21.23
2022-11-08T04:56:09.050Z,21.30
2022-11-08T04:57:08.220Z,21.25
2022-11-08T04:58:08.188Z,21.31
2022-11-08T04:59:11.885Z,21.23
2022-11-08T05:00:09.162Z,21.25
2022-11-08T05:01:09.816Z,21.34
2022-11-08T05:02:10.178Z,21.25
2022-11-08T05:03:09.224Z,21.28
2022-11-08T05:04:10.043Z,21.28
2022-11-08T05:05:10.028Z,21.30
2022-11-08T05:06:10.047Z,21.33
2022-11-08T05:07:10.165Z,21.34
2022-11-08T05:08:10.090Z,21.30
2022-11-08T05:09:10.080Z,21.34
2022-11-08T05:10:09.146Z,21.34
2022-11-08T05:11:10.059Z,21.33
2022-11-08T05:12:10.044Z,21.34
2022-11-08T05:13:09.150Z,21.37
2022-11-08T05:14:10.032Z,21.36
2022-11-08T05:15:11.030Z,21.34
2022-11-08T05:16:10.034Z,21.40
2022-11-08T05:17:10.047Z,21.37
2022-11-08T05:18:10.074Z,21.37
2022-11-08T05:19:13.050Z,21.36
2022-11-08T05:20:08.143Z,21.38
2022-11-08T05:21:09.590Z,21.37
2022-11-08T05:22:08.087Z,21.41
2022-11-08T05:23:10.091Z,21.30
2022-11-08T05:24:08.079Z,21.46
2022-11-08T05:25:08.080Z,21.41
2022-11-08T05:26:09.563Z,21.38
2022-11-08T05:27:08.071Z,21.41
2022-11-08T05:28:08.097Z,21.43
2022-11-08T05:29:08.105Z,21.41
2022-11-08T05:30:08.084Z,21.41
2022-11-08T05:31:09.560Z,21.40
2022-11-08T05:32:09.563Z,21.43
2022-11-08T05:33:09.086Z,21.38
2022-11-08T05:34:09.595Z,21.33
2022-11-08T05:35:09.555Z,21.40
2022-11-08T05:36:09.566Z,21.43
2022-11-08T05:37:09.582Z,21.40
2022-11-08T05:38:08.058Z,21.43
2022-11-08T05:39:09.580Z,21.40
2022-11-08T05:40:09.549Z,21.43
2022-11-08T05:41:09.081Z,21.45
2022-11-08T05:42:09.079Z,21.51
2022-11-08T05:43:09.570Z,21.45
2022-11-08T05:44:09.065Z,21.46
2022-11-08T05:45:09.819Z,21.48
2022-11-08T05:46:09.588Z,21.48
2022-11-08T05:47:09.731Z,21.46
2022-11-08T05:48:14.071Z,21.36
2022-11-08T05:49:09.561Z,21.48
2022-11-08T05:50:07.988Z,21.48
2022-11-08T05:51:09.593Z,21.45
2022-11-08T05:52:09.575Z,21.51
2022-11-08T05:53:08.265Z,21.51
2022-11-08T05:54:07.997Z,21.46
2022-11-08T05:55:07.981Z,21.49
2022-11-08T05:56:07.964Z,21.55
2022-11-08T05:57:09.810Z,21.48
2022-11-08T05:58:08.005Z,21.40
2022-11-08T05:59:08.659Z,21.49
2022-11-08T06:00:07.960Z,21.51
2022-11-08T06:01:09.107Z,21.52
2022-11-08T06:02:08.198Z,21.41
2022-11-08T06:03:09.188Z,21.48
2022-11-08T06:04:07.946Z,21.53
2022-11-08T06:05:08.196Z,21.43
2022-11-08T06:06:09.095Z,21.49
2022-11-08T06:07:08.136Z,21.43
2022-11-08T06:08:09.672Z,21.45
2022-11-08T06:09:07.939Z,21.46
2022-11-08T06:10:09.578Z,21.51
2022-11-08T06:11:09.597Z,21.48
2022-11-08T06:12:07.916Z,21.40
2022-11-08T06:13:09.583Z,21.51
2022-11-08T06:14:09.672Z,21.51
2022-11-08T06:15:09.004Z,21.46
2022-11-08T06:16:09.580Z,21.49
2022-11-08T06:17:10.625Z,21.48
2022-11-08T06:18:08.920Z,21.53
2022-11-08T06:19:09.894Z,21.53
2022-11-08T06:20:09.631Z,21.52
2022-11-08T06:21:09.630Z,21.49
2022-11-08T06:22:09.599Z,21.52
2022-11-08T06:23:09.625Z,21.48
2022-11-08T06:24:09.154Z,21.52
2022-11-08T06:25:09.686Z,21.45
2022-11-08T06:26:09.612Z,21.48
2022-11-08T06:27:08.870Z,21.46
2022-11-08T06:28:10.601Z,21.53
2022-11-08T06:29:09.631Z,21.48
2022-11-08T06:30:07.920Z,21.48
2022-11-08T06:31:09.132Z,21.51
2022-11-08T06:32:08.123Z,21.48
2022-11-08T06:33:16.073Z,21.46
2022-11-08T06:34:08.835Z,21.53
2022-11-08T06:35:08.941Z,21.51
2022-11-08T06:36:14.136Z,21.55
2022-11-08T06:37:07.829Z,21.46
2022-11-08T06:38:09.766Z,21.48
2022-11-08T06:39:11.047Z,21.48
2022-11-08T06:40:09.624Z,21.56
2022-11-08T06:41:19.640Z,21.56
2022-11-08T06:42:08.863Z,21.52
2022-11-08T06:43:11.069Z,21.53
2022-11-08T06:45:09.624Z,21.59
2022-11-08T06:46:09.611Z,21.55
2022-11-08T06:47:07.796Z,21.52
2022-11-08T06:48:09.724Z,21.56
2022-11-08T06:49:07.788Z,21.53
2022-11-08T06:50:09.701Z,21.51
2022-11-08T06:51:09.046Z,21.51
2022-11-08T06:52:08.808Z,21.61
2022-11-08T06:53:09.083Z,21.61
2022-11-08T06:54:08.863Z,21.51
2022-11-08T06:55:11.983Z,21.62
2022-11-08T06:56:07.816Z,21.53
2022-11-08T06:57:10.723Z,21.64
2022-11-08T06:58:15.698Z,21.66
2022-11-08T06:59:07.941Z,21.58
2022-11-08T07:00:09.496Z,21.59
2022-11-08T07:01:09.230Z,21.56
2022-11-08T07:02:07.979Z,21.59
2022-11-08T07:03:07.853Z,21.58
2022-11-08T07:04:11.048Z,21.64
2022-11-08T07:05:08.025Z,21.71
2022-11-08T07:06:08.737Z,21.67
2022-11-08T07:07:07.718Z,21.66
2022-11-08T07:08:10.640Z,21.66
2022-11-08T07:09:09.752Z,21.62
2022-11-08T07:10:09.656Z,21.62
2022-11-08T07:11:09.341Z,21.66
2022-11-08T07:12:10.718Z,21.64
2022-11-08T07:13:09.663Z,21.62
2022-11-08T07:14:08.618Z,21.66
2022-11-08T07:15:09.631Z,21.68
2022-11-08T07:16:09.632Z,21.67
2022-11-08T07:17:09.651Z,21.68
2022-11-08T07:18:07.754Z,21.80
2022-11-08T07:19:07.674Z,21.73
2022-11-08T07:20:08.710Z,21.71
2022-11-08T07:21:07.707Z,21.78
2022-11-08T07:22:09.668Z,21.73
2022-11-08T07:23:08.721Z,21.70
2022-11-08T07:24:07.940Z,21.77
2022-11-08T07:25:09.639Z,21.77
2022-11-08T07:26:08.707Z,21.85
2022-11-08T07:27:09.186Z,21.80
2022-11-08T07:28:09.242Z,21.78
2022-11-08T07:29:13.354Z,21.83
2022-11-08T07:30:09.231Z,21.85
2022-11-08T07:31:08.648Z,21.78
2022-11-08T07:32:09.680Z,21.85
2022-11-08T07:33:09.178Z,21.82
2022-11-08T07:34:09.376Z,21.78
2022-11-08T07:35:07.626Z,21.90
2022-11-08T07:36:07.626Z,21.89
2022-11-08T07:37:07.739Z,21.86
2022-11-08T07:38:09.354Z,21.92
2022-11-08T07:39:07.722Z,21.89
2022-11-08T07:40:07.801Z,21.93
2022-11-08T07:41:09.349Z,21.89
2022-11-08T07:42:07.602Z,21.96
2022-11-08T07:43:13.088Z,21.96
2022-11-08T07:44:09.155Z,21.96
2022-11-08T07:45:09.248Z,22.00
2022-11-08T07:46:09.707Z,21.99
2022-11-08T07:47:09.887Z,21.96
2022-11-08T07:48:12.078Z,22.02
2022-11-08T07:49:07.613Z,22.05
2022-11-08T07:50:09.176Z,22.05
2022-11-08T07:51:09.196Z,22.09
2022-11-08T07:52:09.163Z,22.09
2022-11-08T07:53:15.514Z,22.14
2022-11-08T07:54:28.675Z,22.11
2022-11-08T07:55:12.662Z,22.12
2022-11-08T07:56:07.562Z,22.16
2022-11-08T07:57:11.720Z,22.24
2022-11-08T07:58:07.769Z,22.18
2022-11-08T07:59:09.281Z,22.23
2022-11-08T08:00:07.959Z,22.08
2022-11-08T08:01:09.180Z,22.09
2022-11-08T08:02:09.463Z,22.20
2022-11-08T08:03:09.431Z,22.27
2022-11-08T08:04:07.528Z,22.26
2022-11-08T08:05:09.213Z,22.26
2022-11-08T08:06:09.194Z,22.29
2022-11-08T08:07:09.188Z,22.30
2022-11-08T08:08:09.405Z,22.29
2022-11-08T08:09:09.411Z,22.29
2022-11-08T08:10:07.536Z,22.29
2022-11-08T08:11:15.686Z,22.26
2022-11-08T08:12:10.215Z,22.26
2022-11-08T08:13:09.287Z,22.27
2022-11-08T08:14:14.699Z,22.23
2022-11-08T08:15:08.370Z,22.30
2022-11-08T08:16:09.269Z,22.24
2022-11-08T08:17:09.864Z,22.33
2022-11-08T08:18:09.274Z,22.34
2022-11-08T08:19:15.443Z,22.39
2022-11-08T08:20:09.399Z,22.41
2022-11-08T08:21:09.519Z,22.42
2022-11-08T08:22:15.791Z,22.38
2022-11-08T08:23:08.714Z,22.46
2022-11-08T08:24:09.192Z,22.42
2022-11-08T08:25:09.474Z,22.44
2022-11-08T08:26:10.230Z,22.49
2022-11-08T08:27:09.265Z,22.44
2022-11-08T08:28:09.192Z,22.45
2022-11-08T08:29:09.217Z,22.46
2022-11-08T08:30:10.155Z,22.46
2022-11-08T08:31:07.600Z,22.61
2022-11-08T08:32:10.101Z,22.55
2022-11-08T08:33:27.254Z,22.60
2022-11-08T08:34:07.485Z,22.63
2022-11-08T08:35:07.539Z,22.54
2022-11-08T08:36:09.319Z,22.61
2022-11-08T08:37:07.570Z,22.59
2022-11-08T08:38:07.651Z,22.63
2022-11-08T08:39:09.221Z,22.73
2022-11-08T08:40:07.451Z,22.71
2022-11-08T08:41:07.572Z,22.71
2022-11-08T08:42:07.431Z,22.75
2022-11-08T08:43:09.258Z,22.73
2022-11-08T08:44:07.524Z,22.82
2022-11-08T08:45:10.748Z,22.81
2022-11-08T08:46:07.803Z,22.81
2022-11-08T08:47:07.436Z,22.82
2022-11-08T08:48:09.303Z,22.86
2022-11-08T08:49:07.629Z,22.85
2022-11-08T08:50:07.906Z,22.84
2022-11-08T08:51:07.478Z,22.88
2022-11-08T08:52:07.405Z,22.92
2022-11-08T08:53:09.248Z,22.94
2022-11-08T08:54:07.452Z,22.91
2022-11-08T08:55:07.399Z,22.97
2022-11-08T08:56:09.240Z,22.92
2022-11-08T08:57:07.745Z,23.07
2022-11-08T08:58:09.275Z,23.06
2022-11-08T09:02:09.491Z,23.07
2022-11-08T09:03:16.432Z,23.10
2022-11-08T09:04:09.761Z,23.15
2022-11-08T09:05:07.453Z,23.26
2022-11-08T09:06:08.374Z,23.19
2022-11-08T09:07:08.386Z,23.24
2022-11-08T09:08:09.790Z,23.22
2022-11-08T09:09:07.566Z,23.37
2022-11-08T09:10:07.672Z,23.41
2022-11-08T09:11:07.723Z,23.38
2022-11-08T09:12:11.815Z,23.44
2022-11-08T09:13:09.412Z,23.42
2022-11-08T09:14:07.385Z,23.44
2022-11-08T09:15:09.275Z,23.41
2022-11-08T09:16:07.439Z,23.45
2022-11-08T09:17:09.195Z,23.48
2022-11-08T09:18:09.316Z,23.57
2022-11-08T09:19:09.348Z,23.56
2022-11-08T09:20:07.601Z,23.53
2022-11-08T09:21:07.358Z,23.53
2022-11-08T09:22:09.421Z,23.55
2022-11-08T09:23:10.422Z,23.57
2022-11-08T09:24:09.434Z,23.60
2022-11-08T09:25:07.679Z,23.63
2022-11-08T09:26:09.873Z,23.66
2022-11-08T09:27:08.078Z,23.63
2022-11-08T09:28:08.028Z,23.59
2022-11-08T09:29:13.806Z,23.71
2022-11-08T09:30:07.370Z,23.70
2022-11-08T09:31:09.370Z,23.64
2022-11-08T09:32:09.272Z,23.66
2022-11-08T09:33:07.652Z,23.71
2022-11-08T09:34:19.036Z,23.67
2022-11-08T09:35:07.466Z,23.67
2022-11-08T09:36:07.422Z,23.78
2022-11-08T09:37:09.406Z,23.78
2022-11-08T09:38:09.273Z,23.87
2022-11-08T09:39:09.306Z,23.79
2022-11-08T09:40:09.295Z,23.75
2022-11-08T09:41:09.359Z,23.77
2022-11-08T09:42:08.405Z,23.84
2022-11-08T09:43:08.359Z,23.82
2022-11-08T09:44:07.343Z,23.84
2022-11-08T09:45:09.287Z,23.85
2022-11-08T09:46:09.636Z,23.85
2022-11-08T09:47:08.277Z,23.82
2022-11-08T09:49:08.514Z,23.81
2022-11-08T09:50:07.555Z,23.85
2022-11-08T09:51:23.394Z,23.85
2022-11-08T09:52:07.295Z,23.84
2022-11-08T09:53:10.872Z,23.85
2022-11-08T09:54:08.425Z,23.79
2022-11-08T09:55:08.757Z,23.79
2022-11-08T09:56:08.349Z,23.93
2022-11-08T09:57:09.334Z,23.94
2022-11-08T09:59:09.536Z,23.96
2022-11-08T10:00:07.315Z,23.92
2022-11-08T10:01:13.950Z,23.97
2022-11-08T10:02:09.406Z,23.96
2022-11-08T10:13:21.494Z,24.08
2022-11-08T10:14:24.241Z,24.12
2022-11-08T10:18:30.178Z,24.12
2022-11-08T10:19:28.433Z,24.18
2022-11-08T10:20:36.706Z,24.12
2022-11-08T10:21:36.459Z,24.15
2022-11-08T10:22:32.141Z,24.08
2022-11-08T10:23:29.096Z,24.09
2022-11-08T10:24:28.618Z,24.18
2022-11-08T10:25:32.739Z,24.17
2022-11-08T10:26:33.857Z,24.18
2022-11-08T10:27:28.509Z,24.09
2022-11-08T10:28:29.908Z,24.18
2022-11-08T10:29:31.090Z,24.18
2022-11-08T10:30:28.347Z,24.12
2022-11-08T10:31:28.360Z,24.21
2022-11-08T10:32:31.819Z,24.17
2022-11-08T10:33:28.353Z,24.18
2022-11-08T10:34:28.899Z,24.22
2022-11-08T10:35:28.368Z,24.17
2022-11-08T10:36:29.707Z,24.15
2022-11-08T10:37:28.591Z,24.12
2022-11-08T10:38:35.062Z,24.19
2022-11-08T10:39:28.319Z,24.21
2022-11-08T10:40:28.393Z,24.24
2022-11-08T10:41:29.982Z,24.19
2022-11-08T10:42:35.214Z,24.22
2022-11-08T10:43:28.535Z,24.29
2022-11-08T10:44:28.632Z,24.24
2022-11-08T10:45:28.832Z,24.21
2022-11-08T10:47:30.131Z,24.24
2022-11-08T10:48:30.971Z,24.22
2022-11-08T10:49:29.252Z,24.26
2022-11-08T10:50:36.324Z,24.27
2022-11-08T10:51:30.382Z,24.22
2022-11-08T10:52:28.308Z,24.29
2022-11-08T10:53:28.313Z,24.33
2022-11-08T10:54:29.953Z,24.29
2022-11-08T10:55:29.935Z,24.32
2022-11-08T10:56:28.651Z,24.30
2022-11-08T10:57:30.921Z,24.37
2022-11-08T10:58:28.355Z,24.39
2022-11-08T10:59:28.507Z,24.37
2022-11-08T11:00:29.995Z,24.42
2022-11-08T11:01:28.452Z,24.42
2022-11-08T11:02:29.930Z,24.30
2022-11-08T11:03:28.376Z,24.44
2022-11-08T11:04:28.284Z,24.40
2022-11-08T11:05:34.162Z,24.40
2022-11-08T11:06:31.032Z,24.36
2022-11-08T11:07:29.932Z,24.39
2022-11-08T11:08:28.291Z,24.40
2022-11-08T11:09:29.273Z,24.44
2022-11-08T11:10:30.296Z,24.54
2022-11-08T11:12:28.352Z,24.55
2022-11-08T11:13:30.025Z,24.48
2022-11-08T11:14:29.002Z,24.49
2022-11-08T11:15:35.156Z,24.44
2022-11-08T11:16:30.009Z,24.59
2022-11-08T11:17:28.322Z,24.48
2022-11-08T11:18:28.949Z,24.54
2022-11-08T11:19:30.977Z,24.54
2022-11-08T11:20:28.262Z,24.48
2022-11-08T11:21:28.369Z,24.63
2022-11-08T11:22:30.022Z,24.56
2022-11-08T11:23:28.516Z,24.58
2022-11-08T11:24:29.254Z,24.56
2022-11-08T11:25:28.922Z,24.54
2022-11-08T11:26:47.463Z,24.54
2022-11-08T11:27:30.960Z,24.55
2022-11-08T11:28:31.213Z,24.58
2022-11-08T11:29:28.409Z,24.61
2022-11-08T11:30:29.961Z,24.59
2022-11-08T11:31:30.329Z,24.58
2022-11-08T11:32:30.967Z,24.61
2022-11-08T11:33:28.402Z,24.69
2022-11-08T11:34:29.552Z,24.69
2022-11-08T11:35:30.991Z,24.66
2022-11-08T11:36:28.255Z,24.64
2022-11-08T11:37:29.987Z,24.74
2022-11-08T11:38:30.133Z,24.75
2022-11-08T11:39:29.512Z,24.80
2022-11-08T11:40:29.048Z,24.74
2022-11-08T11:41:30.370Z,24.75
2022-11-08T11:42:45.239Z,24.70
2022-11-08T11:43:29.956Z,24.70
2022-11-08T11:44:30.140Z,24.74
2022-11-08T11:45:30.179Z,24.66
2022-11-08T11:46:30.027Z,24.66
2022-11-08T11:47:29.976Z,24.63
2022-11-08T11:48:28.287Z,24.78
2022-11-08T11:49:29.991Z,24.71
2022-11-08T11:50:30.351Z,24.74
2022-11-08T11:51:35.852Z,24.77
2022-11-08T11:52:29.020Z,24.71
2022-11-08T11:53:30.241Z,24.75
2022-11-08T11:54:29.062Z,24.75
2022-11-08T11:55:30.024Z,24.59
2022-11-08T11:56:28.227Z,24.67
2022-11-08T11:57:28.225Z,24.61
2022-11-08T11:58:29.994Z,24.59
2022-11-08T11:59:28.222Z,24.64
2022-11-08T12:00:30.610Z,24.59
2022-11-08T12:01:28.242Z,24.59
2022-11-08T12:02:28.516Z,24.58
2022-11-08T12:03:29.998Z,24.61
2022-11-08T12:04:29.972Z,24.54
2022-11-08T12:05:29.813Z,24.55
2022-11-08T12:06:30.022Z,24.61
2022-11-08T12:07:28.260Z,24.58
2022-11-08T12:08:30.999Z,24.55
2022-11-08T12:09:33.354Z,24.49
2022-11-08T12:10:29.998Z,24.45
2022-11-08T12:11:30.262Z,24.44
2022-11-08T12:12:29.383Z,24.42
2022-11-08T12:13:28.347Z,24.48
2022-11-08T12:14:34.327Z,24.45
2022-11-08T12:15:40.295Z,24.48
2022-11-08T12:16:30.108Z,24.44
2022-11-08T12:17:36.211Z,24.46
2022-11-08T12:18:42.726Z,24.56
2022-11-08T12:19:28.705Z,24.52
2022-11-08T12:20:29.264Z,24.55
2022-11-08T12:21:35.816Z,24.49
2022-11-08T12:23:29.211Z,24.46
2022-11-08T12:24:31.384Z,24.51
2022-11-08T12:25:29.601Z,24.42
2022-11-08T12:26:31.078Z,24.52
2022-11-08T12:27:31.044Z,24.52
2022-11-08T12:28:29.291Z,24.48
2022-11-08T12:29:30.788Z,24.49
2022-11-08T12:30:30.057Z,24.42
2022-11-08T12:31:29.998Z,24.45
2022-11-08T12:32:29.318Z,24.55
2022-11-08T12:33:33.179Z,24.59
2022-11-08T12:34:44.800Z,24.71
2022-11-08T12:36:28.275Z,24.78
2022-11-08T16:12:30.749Z,21.99
2022-11-08T16:13:29.612Z,21.90
2022-11-08T16:14:30.257Z,21.90
2022-11-08T16:15:30.238Z,21.90
2022-11-08T16:16:34.848Z,21.90
2022-11-08T16:17:30.164Z,21.92
2022-11-08T16:18:29.725Z,21.86
2022-11-08T16:19:28.580Z,21.89
2022-11-08T16:20:29.575Z,21.78
2022-11-08T16:21:29.563Z,21.82
2022-11-08T16:22:29.729Z,21.83
2022-11-08T16:23:29.586Z,21.83
2022-11-08T16:24:29.690Z,21.82
2022-11-08T16:25:29.694Z,21.78
2022-11-08T16:26:29.669Z,21.76
2022-11-08T16:27:30.755Z,21.76
2022-11-08T16:28:28.553Z,21.73
2022-11-08T16:29:28.543Z,21.76
2022-11-08T16:30:29.699Z,21.74
2022-11-08T16:31:30.176Z,21.74
2022-11-08T16:32:30.262Z,21.71
2022-11-08T16:33:28.597Z,21.71
2022-11-08T16:34:30.191Z,21.76
2022-11-08T16:35:30.204Z,21.71
2022-11-08T16:36:28.527Z,21.70
2022-11-08T16:37:30.198Z,21.74
2022-11-08T16:38:30.211Z,21.73
2022-11-08T16:39:30.193Z,21.77
2022-11-08T16:40:30.196Z,21.68
2022-11-08T16:41:28.494Z,21.71
2022-11-08T16:42:30.217Z,21.70
2022-11-08T16:43:30.234Z,21.59
2022-11-08T16:44:30.207Z,21.61
2022-11-08T16:45:58.336Z,21.71
2022-11-08T16:46:30.233Z,21.67
2022-11-08T16:47:30.201Z,21.64
2022-11-08T16:48:30.253Z,21.66
2022-11-08T16:49:30.209Z,21.70
2022-11-08T16:50:30.212Z,21.62
2022-11-08T16:51:30.204Z,21.62
2022-11-08T16:52:29.716Z,21.64
2022-11-08T16:53:32.254Z,21.61
2022-11-08T16:54:30.336Z,21.64
2022-11-08T16:55:28.462Z,21.62
2022-11-08T16:56:28.763Z,21.76
2022-11-08T16:57:34.968Z,21.71
2022-11-08T16:58:29.215Z,21.62
2022-11-08T16:59:28.550Z,21.68
2022-11-08T17:00:28.434Z,21.64
2022-11-08T17:01:30.312Z,21.64
2022-11-08T17:02:29.890Z,21.62
2022-11-08T17:03:30.206Z,21.62
2022-11-08T17:04:29.796Z,21.67
2022-11-08T17:05:29.460Z,21.62
2022-11-08T17:06:30.283Z,21.62
2022-11-08T17:07:30.210Z,21.67
2022-11-08T17:08:30.249Z,21.66
2022-11-08T17:09:30.215Z,21.62
2022-11-08T17:10:29.472Z,21.62
2022-11-08T17:11:30.228Z,21.68
2022-11-08T17:12:30.230Z,21.67
2022-11-08T17:13:29.394Z,21.59
2022-11-08T17:14:30.245Z,21.59
2022-11-08T17:15:30.249Z,21.56
2022-11-08T17:16:29.388Z,21.66
2022-11-08T17:17:30.229Z,21.58
2022-11-08T17:18:30.251Z,21.59
2022-11-08T17:19:30.239Z,21.62
2022-11-08T17:20:30.421Z,21.66
2022-11-08T17:21:44.339Z,21.61
2022-11-08T17:22:30.311Z,21.58
2022-11-08T17:23:29.358Z,21.55
2022-11-08T17:24:28.381Z,21.53
2022-11-08T17:25:30.742Z,21.62
2022-11-08T17:26:30.302Z,21.59
2022-11-08T17:27:29.390Z,21.59
2022-11-08T17:28:30.267Z,21.62
2022-11-08T17:29:29.336Z,21.52
2022-11-08T17:30:29.372Z,21.53
2022-11-08T17:31:30.306Z,21.55
2022-11-08T17:32:29.451Z,21.48
2022-11-08T17:33:30.754Z,21.66
2022-11-08T17:34:30.745Z,21.53
2022-11-08T17:35:30.737Z,21.59
2022-11-08T17:36:29.327Z,21.59
2022-11-08T17:37:28.420Z,21.61
2022-11-08T17:38:30.273Z,21.52
2022-11-08T17:39:28.292Z,21.52
2022-11-08T17:40:30.315Z,21.56
2022-11-08T17:41:29.304Z,21.59
2022-11-08T17:42:34.137Z,21.58
2022-11-08T17:43:29.284Z,21.53
2022-11-08T17:44:30.263Z,21.49
2022-11-08T17:45:29.273Z,21.61
2022-11-08T17:46:28.373Z,21.58
2022-11-08T17:47:28.270Z,21.51
2022-11-08T17:48:30.249Z,21.52
2022-11-08T17:49:30.793Z,21.53
2022-11-08T17:50:29.373Z,21.53
2022-11-08T17:51:29.787Z,21.55
2022-11-08T17:52:29.776Z,21.51
2022-11-08T17:53:29.914Z,21.56
2022-11-08T17:54:29.798Z,21.52
2022-11-08T17:55:30.261Z,21.53
2022-11-08T17:56:29.274Z,21.55
2022-11-08T17:57:29.276Z,21.58
2022-11-08T17:58:28.283Z,21.58
2022-11-08T17:59:28.283Z,21.56
2022-11-08T18:00:28.368Z,21.53
2022-11-08T18:01:29.432Z,21.58
2022-11-08T18:02:29.297Z,21.52
2022-11-08T18:03:29.228Z,21.46
2022-11-08T18:04:29.819Z,21.53
2022-11-08T18:05:29.854Z,21.56
2022-11-08T18:06:30.027Z,21.55
2022-11-08T18:07:29.816Z,21.48
2022-11-08T18:08:29.769Z,21.53
2022-11-08T18:09:29.798Z,21.45
2022-11-08T18:10:29.764Z,21.51
2022-11-08T18:11:29.180Z,21.56
2022-11-08T18:12:29.899Z,21.52
2022-11-08T18:13:29.276Z,21.51
2022-11-08T18:14:30.027Z,21.52
2022-11-08T18:15:29.822Z,21.45
2022-11-08T18:16:29.759Z,21.52
2022-11-08T18:17:29.765Z,21.48
2022-11-08T18:18:29.764Z,21.58
2022-11-08T18:19:29.799Z,21.48
2022-11-08T18:21:29.796Z,21.53
2022-11-08T18:22:29.788Z,21.52
2022-11-08T18:23:29.835Z,21.43
2022-11-08T18:24:29.861Z,21.49
2022-11-08T18:25:29.780Z,21.48
2022-11-08T18:26:29.780Z,21.45
2022-11-08T18:27:29.861Z,21.49
2022-11-08T18:28:29.833Z,21.49
2022-11-08T18:29:29.777Z,21.49
2022-11-08T18:30:29.797Z,21.49
2022-11-08T18:31:29.917Z,21.49
2022-11-08T18:32:29.815Z,21.45
2022-11-08T18:33:29.141Z,21.48
2022-11-08T18:34:28.153Z,21.46
2022-11-08T18:35:29.398Z,21.46
2022-11-08T18:36:29.889Z,21.49
2022-11-08T18:37:29.855Z,21.48
2022-11-08T18:38:29.785Z,21.43
2022-11-08T18:39:29.817Z,21.52
2022-11-08T18:40:29.789Z,21.48
2022-11-08T18:41:29.098Z,21.53
2022-11-08T18:42:29.137Z,21.49
2022-11-08T18:43:29.305Z,21.52
2022-11-08T18:44:29.457Z,21.52
2022-11-08T18:45:29.788Z,21.45
2022-11-08T18:46:29.805Z,21.51
2022-11-08T18:47:28.056Z,21.53
2022-11-08T18:48:29.830Z,21.45
2022-11-08T18:49:29.814Z,21.52
2022-11-08T18:50:29.792Z,21.51
2022-11-08T18:51:29.063Z,21.48
2022-11-08T18:52:29.881Z,21.46
2022-11-08T18:53:29.347Z,21.49
2022-11-08T18:54:29.288Z,21.45
2022-11-08T18:55:28.202Z,21.48
2022-11-08T18:56:28.104Z,21.49
2022-11-08T18:57:28.087Z,21.49
2022-11-08T18:58:28.024Z,21.53
2022-11-08T18:59:29.325Z,21.49
2022-11-08T19:00:28.030Z,21.48
2022-11-08T19:01:28.118Z,21.45
2022-11-08T19:02:29.864Z,21.46
2022-11-08T19:03:28.043Z,21.52
2022-11-08T19:04:27.987Z,21.46
2022-11-08T19:05:27.988Z,21.46
2022-11-08T19:06:28.042Z,21.52
2022-11-08T19:07:27.994Z,21.45
2022-11-08T19:08:29.843Z,21.56
2022-11-08T19:09:28.970Z,21.48
2022-11-08T19:10:28.967Z,21.46
2022-11-08T19:11:29.075Z,21.46
2022-11-08T19:12:29.326Z,21.51
2022-11-08T19:13:28.951Z,21.48
2022-11-08T19:14:29.808Z,21.45
2022-11-08T19:15:28.951Z,21.43
2022-11-08T19:16:29.881Z,21.53
2022-11-08T19:17:27.933Z,21.61
2022-11-08T19:18:29.946Z,21.43
2022-11-08T19:19:29.853Z,21.48
2022-11-08T19:20:28.999Z,21.51
2022-11-08T19:21:29.951Z,21.52
2022-11-08T19:22:29.824Z,21.61
2022-11-08T19:23:29.373Z,21.48
2022-11-08T19:24:29.869Z,21.58
2022-11-08T19:25:29.120Z,21.48
2022-11-08T19:26:29.860Z,21.48
2022-11-08T19:27:29.831Z,21.48
2022-11-08T19:28:32.813Z,21.53
2022-11-08T19:29:27.945Z,21.51
2022-11-08T19:30:27.904Z,21.49
2022-11-08T19:31:29.078Z,21.48
2022-11-08T19:32:28.903Z,21.52
2022-11-08T19:33:29.371Z,21.55
2022-11-08T19:34:28.875Z,21.52
2022-11-08T19:35:28.870Z,21.48
2022-11-08T19:36:28.921Z,21.52
2022-11-08T19:37:27.877Z,21.43
2022-11-08T19:38:29.858Z,21.49
2022-11-08T19:39:29.903Z,21.46
2022-11-08T19:40:32.350Z,21.49
2022-11-08T19:41:29.392Z,21.49
2022-11-08T19:42:29.856Z,21.52
2022-11-08T19:43:29.398Z,21.45
2022-11-08T19:44:29.432Z,21.52
2022-11-08T19:45:29.380Z,21.49
2022-11-08T19:46:28.976Z,21.43
2022-11-08T19:47:29.360Z,21.45
2022-11-08T19:48:29.372Z,21.45
2022-11-08T19:49:29.345Z,21.45
2022-11-08T19:50:29.589Z,21.53
2022-11-08T19:51:29.374Z,21.49
2022-11-08T19:52:29.383Z,21.48
2022-11-08T19:53:29.391Z,21.46
2022-11-08T19:54:29.462Z,21.48
2022-11-08T19:55:29.372Z,21.43
2022-11-08T19:56:57.727Z,21.48
2022-11-08T19:57:29.353Z,21.58
2022-11-08T19:58:29.395Z,21.48
2022-11-08T19:59:29.390Z,21.45
2022-11-08T20:00:29.390Z,21.43
2022-11-08T20:01:29.389Z,21.43
2022-11-08T20:02:29.433Z,21.49
2022-11-08T20:03:29.363Z,21.46
2022-11-08T20:04:29.467Z,21.46
2022-11-08T20:05:27.768Z,21.56
2022-11-08T20:06:27.798Z,21.59
2022-11-08T20:07:27.782Z,21.45
2022-11-08T20:08:27.779Z,21.55
2022-11-08T20:09:30.961Z,21.51
2022-11-08T20:10:29.381Z,21.48
2022-11-08T20:11:28.987Z,21.56
2022-11-08T20:12:28.732Z,21.45
2022-11-08T20:13:29.452Z,21.48
2022-11-08T20:14:29.486Z,21.51
2022-11-08T20:15:29.374Z,21.43
2022-11-08T20:16:28.723Z,21.56
2022-11-08T20:17:29.365Z,21.55
2022-11-08T20:18:29.364Z,21.48
2022-11-08T20:19:29.367Z,21.55
2022-11-08T20:20:29.373Z,21.55
2022-11-08T20:21:28.987Z,21.45
2022-11-08T20:22:29.720Z,21.45
2022-11-08T20:23:28.804Z,21.48
2022-11-08T20:24:29.385Z,21.43
2022-11-08T20:25:27.725Z,21.51
2022-11-08T20:26:29.409Z,21.51
2022-11-08T20:27:29.499Z,21.43
2022-11-08T20:28:29.374Z,21.46
2022-11-08T20:29:28.715Z,21.53
2022-11-08T20:30:29.461Z,21.41
2022-11-08T20:31:28.692Z,21.61
2022-11-08T20:32:29.441Z,21.51
2022-11-08T20:33:28.684Z,21.58
2022-11-08T20:34:29.806Z,21.56
2022-11-08T20:35:28.911Z,21.48
2022-11-08T20:36:31.775Z,21.49
2022-11-08T20:37:27.640Z,21.49
2022-11-08T20:38:27.641Z,21.53
2022-11-08T20:39:28.902Z,21.46
2022-11-08T20:40:27.674Z,21.48
2022-11-08T20:41:29.488Z,21.52
2022-11-08T20:42:28.702Z,21.52
2022-11-08T20:43:28.661Z,21.46
2022-11-08T20:44:29.562Z,21.49
2022-11-08T20:45:28.682Z,21.48
2022-11-08T20:46:29.487Z,21.46
2022-11-08T20:47:29.403Z,21.49
2022-11-08T20:48:28.948Z,21.45
2022-11-08T20:49:29.395Z,21.53
2022-11-08T20:50:30.466Z,21.45